K&a Sp — 3FVZ3 — position and weather

sailwx.info

Track history (hours):
 
Tides and Currents Weather Stations Pressure Air Temp Water Temp Dewpoint Dewpoint Depression Visibility Wind Speed Wind Dir Waves Ship Positions

K&a Sp

Last reported at 2016-Jul-21 08:05 UTC. Time now 2016-Jul-23 15:00 UTC.
Position N 36°07' E 140°51'.

Length 177 m; draft 6.9 m.

Type: Cargo ship. MMSI: 354085000.

Date/timePositionNaut miles runAvg speedWind from/ knotsBaromVisibWave heightAir tempDewpointWater temp
2016-Jul-21 08:05N 36°07' E 140°51'611.7
2016-Jul-21 07:34N 36°02' E 140°47'8 7.6
2016-Jul-21 06:32N 35°56' E 140°41'0 0.0
2016-Jul-21 03:17N 35°56' E 140°41'0 0.0
2016-Jul-21 02:32N 35°56' E 140°41'0 0.0
2016-Jul-20 20:32N 35°56' E 140°41'0 0.0
2016-Jul-19 23:17N 35°56' E 140°41'0 0.0
2016-Jul-19 22:23N 35°56' E 140°41'0 0.0
2016-Jul-19 19:17N 35°56' E 140°41'0 0.0
2016-Jul-18 19:25N 35°56' E 140°41'0 0.0
2016-Jul-18 05:33N 35°56' E 140°41'7 6.2
2016-Jul-18 04:29N 35°58' E 140°49'1 0.3
2016-Jul-18 02:21N 35°58' E 140°49'0 0.1
2016-Jul-18 01:27N 35°58' E 140°49'0 0.0
2016-Jul-18 00:33N 35°58' E 140°49'0 0.1
2016-Jul-17 22:21N 35°58' E 140°49'0 0.0
2016-Jul-17 21:33N 35°58' E 140°49'0 0.0
2016-Jul-17 20:33N 35°58' E 140°49'0 0.0
2016-Jul-17 19:06N 35°58' E 140°49'0 0.1
2016-Jul-17 18:33N 35°58' E 140°49'0 0.1
2016-Jul-17 17:21N 35°58' E 140°49'0 0.1
2016-Jul-17 16:33N 35°58' E 140°49'0 0.0
2016-Jul-17 15:15N 35°58' E 140°49'0 0.0
2016-Jul-17 14:30N 35°58' E 140°49'0 0.1
2016-Jul-17 13:21N 35°58' E 140°49'0 0.0
2016-Jul-17 12:33N 35°58' E 140°49'0 0.0
2016-Jul-17 10:21N 35°58' E 140°49'0 0.0
2016-Jul-17 06:27N 35°58' E 140°49'0 0.1
2016-Jul-17 04:33N 35°58' E 140°49'0 0.0
2016-Jul-17 00:27N 35°58' E 140°49'0 0.0
2016-Jul-16 23:33N 35°58' E 140°49'0 0.1
2016-Jul-16 22:21N 35°58' E 140°49'0 0.0
2016-Jul-16 21:12N 35°58' E 140°49'0 0.0
2016-Jul-16 20:30N 35°58' E 140°49'0 0.0
2016-Jul-16 19:21N 35°58' E 140°49'0 0.0
2016-Jul-16 17:09N 35°58' E 140°49'0 0.0
2016-Jul-16 16:24N 35°58' E 140°49'0 0.0
2016-Jul-16 15:33N 35°58' E 140°49'0 0.0
2016-Jul-16 14:33N 35°58' E 140°49'0 0.0
2016-Jul-16 09:30N 35°58' E 140°49'0 0.0
2016-Jul-16 07:27N 35°58' E 140°49'0 0.0
2016-Jul-16 06:33N 35°58' E 140°49'0 0.0
2016-Jul-15 18:26N 35°58' E 140°49'0 0.0
2016-Jul-15 16:32N 35°58' E 140°49'0 0.0
2016-Jul-15 15:21N 35°58' E 140°49'0 0.0
2016-Jul-15 13:08N 35°58' E 140°49'0 0.0
2016-Jul-15 10:32N 35°58' E 140°49'0 0.0
2016-Jul-15 08:21N 35°58' E 140°49'18 9.7
2016-Jul-15 06:33N 35°43' E 141°00'1311.4
2016-Jul-15 05:26N 35°31' E 140°56'1112.0
2016-Jul-15 04:33N 35°21' E 140°50'3710.8
2016-Jul-15 01:11N 34°54' E 140°20'711.2
2016-Jul-15 00:33N 34°51' E 140°12'1411.7
2016-Jul-14 23:23N 34°45' E 139°57'1011.6
2016-Jul-14 22:30N 34°41' E 139°46'  
2016-Jul-11 11:34N 36°12' E 124°06'  
Track history (hours):
 
Tides and Currents Weather Stations Pressure Air Temp Water Temp Dewpoint Dewpoint Depression Visibility Wind Speed Wind Dir Waves Ship Positions

K&a Sp

Last reported at 2016-Jul-21 08:05 UTC. Time now 2016-Jul-23 15:00 UTC.
Position N 36°07' E 140°51'.

Length 177 m; draft 6.9 m.

Type: Cargo ship. MMSI: 354085000.

Date/timePositionNaut miles runAvg speedWind from/ knotsBaromVisibWave heightAir tempDewpointWater temp
2016-Jul-21 08:05N 36°07' E 140°51'611.7
2016-Jul-21 07:34N 36°02' E 140°47'8 7.6
2016-Jul-21 06:32N 35°56' E 140°41'0 0.0
2016-Jul-21 03:17N 35°56' E 140°41'0 0.0
2016-Jul-21 02:32N 35°56' E 140°41'0 0.0
2016-Jul-20 20:32N 35°56' E 140°41'0 0.0
2016-Jul-19 23:17N 35°56' E 140°41'0 0.0
2016-Jul-19 22:23N 35°56' E 140°41'0 0.0
2016-Jul-19 19:17N 35°56' E 140°41'0 0.0
2016-Jul-18 19:25N 35°56' E 140°41'0 0.0
2016-Jul-18 05:33N 35°56' E 140°41'7 6.2
2016-Jul-18 04:29N 35°58' E 140°49'1 0.3
2016-Jul-18 02:21N 35°58' E 140°49'0 0.1
2016-Jul-18 01:27N 35°58' E 140°49'0 0.0
2016-Jul-18 00:33N 35°58' E 140°49'0 0.1
2016-Jul-17 22:21N 35°58' E 140°49'0 0.0
2016-Jul-17 21:33N 35°58' E 140°49'0 0.0
2016-Jul-17 20:33N 35°58' E 140°49'0 0.0
2016-Jul-17 19:06N 35°58' E 140°49'0 0.1
2016-Jul-17 18:33N 35°58' E 140°49'0 0.1
2016-Jul-17 17:21N 35°58' E 140°49'0 0.1
2016-Jul-17 16:33N 35°58' E 140°49'0 0.0
2016-Jul-17 15:15N 35°58' E 140°49'0 0.0
2016-Jul-17 14:30N 35°58' E 140°49'0 0.1
2016-Jul-17 13:21N 35°58' E 140°49'0 0.0
2016-Jul-17 12:33N 35°58' E 140°49'0 0.0
2016-Jul-17 10:21N 35°58' E 140°49'0 0.0
2016-Jul-17 06:27N 35°58' E 140°49'0 0.1
2016-Jul-17 04:33N 35°58' E 140°49'0 0.0
2016-Jul-17 00:27N 35°58' E 140°49'0 0.0
2016-Jul-16 23:33N 35°58' E 140°49'0 0.1
2016-Jul-16 22:21N 35°58' E 140°49'0 0.0
2016-Jul-16 21:12N 35°58' E 140°49'0 0.0
2016-Jul-16 20:30N 35°58' E 140°49'0 0.0
2016-Jul-16 19:21N 35°58' E 140°49'0 0.0
2016-Jul-16 17:09N 35°58' E 140°49'0 0.0
2016-Jul-16 16:24N 35°58' E 140°49'0 0.0
2016-Jul-16 15:33N 35°58' E 140°49'0 0.0
2016-Jul-16 14:33N 35°58' E 140°49'0 0.0
2016-Jul-16 09:30N 35°58' E 140°49'0 0.0
2016-Jul-16 07:27N 35°58' E 140°49'0 0.0
2016-Jul-16 06:33N 35°58' E 140°49'0 0.0
2016-Jul-15 18:26N 35°58' E 140°49'0 0.0
2016-Jul-15 16:32N 35°58' E 140°49'0 0.0
2016-Jul-15 15:21N 35°58' E 140°49'0 0.0
2016-Jul-15 13:08N 35°58' E 140°49'0 0.0
2016-Jul-15 10:32N 35°58' E 140°49'0 0.0
2016-Jul-15 08:21N 35°58' E 140°49'18 9.7
2016-Jul-15 06:33N 35°43' E 141°00'1311.4
2016-Jul-15 05:26N 35°31' E 140°56'1112.0
2016-Jul-15 04:33N 35°21' E 140°50'3710.8
2016-Jul-15 01:11N 34°54' E 140°20'711.2
2016-Jul-15 00:33N 34°51' E 140°12'1411.7
2016-Jul-14 23:23N 34°45' E 139°57'1011.6
2016-Jul-14 22:30N 34°41' E 139°46'  
2016-Jul-11 11:34N 36°12' E 124°06'  

Dump ship's entire track history